Etusivu
METAR-TAF:

METAR-TAF

Lentoasemat :

Oostende, Belgia

Leveyspiiri: 51-12N, Pituuspiiri: 002-52E, korkeus merenpinnasta: 4 m

Tämänhetkinen sää

Tämä raportti tehtiin 28 minuuttia sitten, kello 13.50 UTC
Tuuli 7 kn pohjoisesta, vaihdellen luoteen ja pohjoisen/koillisen välillä
Lämpötila 7°C
Kosteus 76%
Ilmanpaine 1031 hPa
Näkyvyys 10 km tai enemmän
Muutamia pilviä 1500 ft:n korkeudessa
Hajonneita pilviä 2500 ft:n korkeudessa

METAR: EBOS 301350Z 35007KT 320V020 9999 FEW015 BKN025 07/03 Q1031 NOSIG

Aika: 16:18 (14:18 UTC)

Sääennuste

Tämä raportti tehtiin 3 tuntia ja 3 minuuttia sitten, kello 11.15 UTC
Ennuste voimassa 30. päivästä klo 12 UTC - 31. päivään klo 18 UTC
Tuuli 8 kn pohjoisesta/koillisesta
Näkyvyys 10 km tai enemmän
Hajanaisia pilviä 4500 ft:n korkeudessa
Todennäköisyys 30% :
Ajoittain
30. päivästä klo 12 UTC - 30. päivään klo 15 UTC
Hajonneita pilviä 1400 ft:n korkeudessa

TAF: EBOS 301115Z 3012/3118 02008KT 9999 SCT045 PROB30 TEMPO 3012/3015 BKN014

Säähavainnot ja -ennusteet yli 4000 lentoasemalta (METAR- ja TAF-raportit).

Käytössä olevat sääasemat on merkitty karttaan keltaisilla ja punaisilla pisteillä.

Aseta hiiri pisteen päälle nähdäksesi sääaseman nimen.

Klikkaa sitten nähdäksesi säähavainnot ja -ennusteet.

Kartan vaihtaminen: klikkaa mustalla rastilla varustettuja vihreitä pisteitä, niin voit zoomata sisään; viivalla varustettua vihreää pistettä, niin voit zoomata ulos tai vihreitä nuolia, niin pääset viereisille kartoille.


METAR-TAF: